createdAt,value
2019-06-27T00:03:57.257Z,58.90
2019-06-27T00:09:01.042Z,59.00
2019-06-27T00:14:04.808Z,59.00
2019-06-27T00:19:08.553Z,59.00
2019-06-27T00:24:12.350Z,58.90
2019-06-27T00:29:16.088Z,58.90
2019-06-27T00:34:19.855Z,58.90
2019-06-27T00:39:23.727Z,59.00
2019-06-27T00:44:28.591Z,58.90
2019-06-27T00:49:32.210Z,58.90
2019-06-27T00:54:35.904Z,59.00
2019-06-27T00:59:39.710Z,58.90
2019-06-27T01:04:43.498Z,58.90
2019-06-27T01:09:47.302Z,59.00
2019-06-27T01:14:51.120Z,58.90
2019-06-27T01:19:54.764Z,58.90
2019-06-27T01:24:58.524Z,58.90
2019-06-27T01:30:02.251Z,58.90
2019-06-27T01:35:06.144Z,58.90
2019-06-27T01:40:09.875Z,58.90
2019-06-27T01:45:28.396Z,58.80
2019-06-27T01:50:32.096Z,58.80
2019-06-27T01:55:35.927Z,58.70
2019-06-27T02:00:39.577Z,58.80
2019-06-27T02:05:43.233Z,58.70
2019-06-27T02:10:47.049Z,58.70
2019-06-27T02:15:50.729Z,58.60
2019-06-27T02:20:54.371Z,58.60
2019-06-27T02:25:58.108Z,58.60
2019-06-27T02:31:01.773Z,58.60
2019-06-27T02:36:05.543Z,58.60
2019-06-27T02:41:09.282Z,58.50
2019-06-27T02:46:13.003Z,58.50
2019-06-27T02:51:16.763Z,58.40
2019-06-27T02:56:20.470Z,58.40
2019-06-27T03:01:26.254Z,58.40
2019-06-27T03:06:29.926Z,58.40
2019-06-27T03:11:33.708Z,58.30
2019-06-27T03:16:37.488Z,58.30
2019-06-27T03:21:41.277Z,58.20
2019-06-27T03:26:45.018Z,58.20
2019-06-27T03:31:48.718Z,58.70
2019-06-27T03:36:52.746Z,58.20
2019-06-27T03:41:56.461Z,58.20
2019-06-27T03:47:00.253Z,58.10
2019-06-27T03:52:03.977Z,58.10
2019-06-27T03:57:07.776Z,58.00
2019-06-27T04:02:11.455Z,58.10
2019-06-27T04:07:15.173Z,58.10
2019-06-27T04:12:18.875Z,58.00
2019-06-27T04:17:22.576Z,57.90
2019-06-27T04:22:26.228Z,57.90
2019-06-27T04:27:29.952Z,57.80
2019-06-27T04:32:33.619Z,57.80
2019-06-27T04:37:37.565Z,57.80
2019-06-27T04:42:41.325Z,57.80
2019-06-27T04:47:44.984Z,57.70
2019-06-27T04:52:48.735Z,57.70
2019-06-27T04:57:52.499Z,57.60
2019-06-27T05:02:56.239Z,57.60
2019-06-27T05:08:00.020Z,57.50
2019-06-27T05:13:03.886Z,58.10
2019-06-27T05:18:07.681Z,57.40
2019-06-27T05:23:23.102Z,57.50
2019-06-27T05:28:16.889Z,57.40
2019-06-27T05:33:20.560Z,57.30
2019-06-27T05:38:24.325Z,57.30
2019-06-27T05:43:28.160Z,57.20
2019-06-27T05:48:32.538Z,57.10
2019-06-27T05:53:36.175Z,57.10
2019-06-27T05:58:59.158Z,57.00
2019-06-27T06:04:03.059Z,56.90
2019-06-27T06:09:07.049Z,57.00
2019-06-27T06:14:11.080Z,56.90
2019-06-27T06:19:14.914Z,56.80
2019-06-27T06:24:18.601Z,56.80
2019-06-27T06:29:22.433Z,56.80
2019-06-27T06:34:26.338Z,56.70
2019-06-27T06:39:30.507Z,56.70
2019-06-27T06:44:35.023Z,56.50
2019-06-27T06:49:38.861Z,56.50
2019-06-27T06:54:42.617Z,56.50
2019-06-27T06:59:46.371Z,56.40
2019-06-27T07:04:50.148Z,56.50
2019-06-27T07:09:54.375Z,56.50
2019-06-27T07:14:58.111Z,56.50
2019-06-27T07:20:01.945Z,56.50
2019-06-27T07:25:05.725Z,56.50
2019-06-27T07:30:09.856Z,56.50
2019-06-27T07:35:13.717Z,56.50
2019-06-27T07:40:17.472Z,56.40
2019-06-27T07:45:21.286Z,56.50
2019-06-27T07:50:25.082Z,56.40
2019-06-27T07:55:28.784Z,56.40
2019-06-27T08:00:32.528Z,56.40
2019-06-27T08:05:36.250Z,56.40
2019-06-27T08:10:40.089Z,56.30
2019-06-27T08:15:43.897Z,56.30
2019-06-27T08:20:47.659Z,56.40
2019-06-27T08:25:58.410Z,56.40
2019-06-27T08:31:03.877Z,56.40
2019-06-27T08:36:07.595Z,56.40
2019-06-27T08:41:13.943Z,56.40
2019-06-27T08:46:16.765Z,56.30
2019-06-27T08:51:20.497Z,56.40
2019-06-27T08:56:24.161Z,56.30
2019-06-27T09:01:31.483Z,56.30
2019-06-27T09:06:35.309Z,56.20
2019-06-27T09:11:39.063Z,56.20
2019-06-27T09:16:46.408Z,56.20
2019-06-27T09:21:48.210Z,56.10
2019-06-27T09:26:52.122Z,56.10
2019-06-27T09:31:55.844Z,56.00
2019-06-27T09:36:59.667Z,56.10
2019-06-27T09:42:03.612Z,56.00
2019-06-27T09:47:09.033Z,56.00
2019-06-27T09:52:12.989Z,56.00
2019-06-27T09:57:16.863Z,56.00
2019-06-27T10:02:20.768Z,56.00
2019-06-27T10:07:24.502Z,56.00
2019-06-27T10:12:41.610Z,56.00
2019-06-27T10:17:33.739Z,56.00
2019-06-27T10:22:38.784Z,56.00
2019-06-27T10:27:46.851Z,55.90
2019-06-27T10:32:59.176Z,55.90
2019-06-27T10:37:55.789Z,55.90
2019-06-27T10:42:59.930Z,55.90
2019-06-27T10:48:03.824Z,55.80
2019-06-27T10:53:08.601Z,55.80
2019-06-27T10:58:13.712Z,55.90
2019-06-27T11:03:17.564Z,55.80
2019-06-27T11:08:21.265Z,55.80
2019-06-27T11:13:25.285Z,55.80
2019-06-27T11:18:29.733Z,55.80
2019-06-27T11:23:33.546Z,56.30
2019-06-27T11:28:37.223Z,55.70
2019-06-27T11:33:41.278Z,55.70
2019-06-27T11:38:45.125Z,55.60
2019-06-27T11:43:50.798Z,55.60
2019-06-27T11:48:54.821Z,56.10
2019-06-27T11:53:59.660Z,55.50
2019-06-27T11:59:04.053Z,55.50
2019-06-27T12:04:07.878Z,55.50
2019-06-27T12:09:12.395Z,55.40
2019-06-27T12:14:16.434Z,55.30
2019-06-27T12:19:20.556Z,55.30
2019-06-27T12:24:24.250Z,55.30
2019-06-27T12:29:28.795Z,54.90
2019-06-27T12:34:32.826Z,55.30
2019-06-27T12:39:36.567Z,55.30
2019-06-27T12:44:40.485Z,55.20
2019-06-27T12:50:00.578Z,55.20
2019-06-27T12:54:49.874Z,55.00
2019-06-27T12:59:53.591Z,55.10
2019-06-27T13:04:57.681Z,55.10
2019-06-27T13:10:04.698Z,55.00
2019-06-27T13:15:10.261Z,55.10
2019-06-27T13:20:15.694Z,54.90
2019-06-27T13:25:19.761Z,54.90
2019-06-27T13:30:23.928Z,54.90
2019-06-27T13:35:27.662Z,54.90
2019-06-27T13:40:31.557Z,54.90
2019-06-27T13:45:35.317Z,54.70
2019-06-27T13:50:42.057Z,54.70
2019-06-27T13:55:45.746Z,54.70
2019-06-27T14:00:50.247Z,54.60
2019-06-27T14:05:53.955Z,54.60
2019-06-27T14:10:58.698Z,54.40
2019-06-27T14:16:05.652Z,54.50
2019-06-27T14:21:08.260Z,54.40
2019-06-27T14:26:12.053Z,54.40
2019-06-27T14:31:16.036Z,54.40
2019-06-27T14:36:19.792Z,54.30
2019-06-27T14:41:24.945Z,54.40
2019-06-27T14:46:28.797Z,54.40
2019-06-27T14:51:32.459Z,54.30
2019-06-27T14:56:36.715Z,54.30
2019-06-27T15:01:40.553Z,54.30
2019-06-27T15:06:44.765Z,54.20
2019-06-27T15:11:49.247Z,54.10
2019-06-27T15:16:53.097Z,54.10
2019-06-27T15:21:56.955Z,54.00
2019-06-27T15:27:00.904Z,54.00
2019-06-27T15:32:04.731Z,54.00
2019-06-27T15:37:09.543Z,54.00
2019-06-27T15:42:16.368Z,54.00
2019-06-27T15:47:20.324Z,54.00
2019-06-27T15:52:24.287Z,54.10
2019-06-27T15:57:28.137Z,54.00
2019-06-27T16:02:32.167Z,54.10
2019-06-27T16:07:37.321Z,53.90
2019-06-27T16:12:41.451Z,53.90
2019-06-27T16:17:45.155Z,53.80
2019-06-27T16:22:50.974Z,53.90
2019-06-27T16:27:54.744Z,53.80
2019-06-27T16:32:59.726Z,53.80
2019-06-27T16:38:03.496Z,53.80
2019-06-27T16:43:08.772Z,53.80
2019-06-27T16:48:12.815Z,53.80
2019-06-27T16:53:17.401Z,53.70
2019-06-27T16:58:21.983Z,54.40
2019-06-27T17:03:29.438Z,53.90
2019-06-27T17:08:33.359Z,53.90
2019-06-27T17:13:38.073Z,53.90
2019-06-27T17:18:42.208Z,53.90
2019-06-27T17:23:47.406Z,53.70
2019-06-27T17:28:51.428Z,53.90
2019-06-27T17:33:55.720Z,53.90
2019-06-27T17:38:59.751Z,53.90
2019-06-27T17:44:03.579Z,54.50
2019-06-27T17:49:09.677Z,53.80
2019-06-27T17:54:13.425Z,53.90
2019-06-27T17:59:17.222Z,53.90
2019-06-27T18:04:21.019Z,53.90
2019-06-27T18:09:26.001Z,53.90
2019-06-27T18:14:29.786Z,53.70
2019-06-27T18:19:33.663Z,53.80
2019-06-27T18:24:41.563Z,53.90
2019-06-27T18:29:42.893Z,53.90
2019-06-27T18:34:46.738Z,53.80
2019-06-27T18:39:50.652Z,53.90
2019-06-27T18:44:54.736Z,53.80
2019-06-27T18:49:58.476Z,53.90
2019-06-27T18:55:02.263Z,53.90
2019-06-27T19:00:09.279Z,53.90
2019-06-27T19:05:13.560Z,53.90
2019-06-27T19:10:17.569Z,54.00
2019-06-27T19:15:22.045Z,53.90
2019-06-27T19:20:53.502Z,53.90
2019-06-27T19:25:59.677Z,53.90
2019-06-27T19:31:03.750Z,53.90
2019-06-27T19:36:07.643Z,53.90
2019-06-27T19:41:11.303Z,53.90
2019-06-27T19:46:15.511Z,53.80
2019-06-27T19:51:19.475Z,53.80
2019-06-27T19:56:24.983Z,53.90
2019-06-27T20:01:28.800Z,53.90
2019-06-27T20:06:32.835Z,53.80
2019-06-27T20:11:36.519Z,53.80
2019-06-27T20:16:40.346Z,53.80
2019-06-27T20:21:44.297Z,53.80
2019-06-27T20:26:48.143Z,53.80
2019-06-27T20:31:52.405Z,53.80
2019-06-27T20:36:56.254Z,53.90
2019-06-27T20:42:00.372Z,53.80
2019-06-27T20:47:04.615Z,53.90
2019-06-27T20:52:08.746Z,53.80
2019-06-27T20:57:13.466Z,53.90
2019-06-27T21:02:17.476Z,53.90
2019-06-27T21:07:21.554Z,53.80
2019-06-27T21:12:29.182Z,53.80
2019-06-27T21:17:33.514Z,53.90
2019-06-27T21:22:37.318Z,53.80
2019-06-27T21:27:41.141Z,53.80
2019-06-27T21:32:48.210Z,53.80
2019-06-27T21:37:52.521Z,53.80
2019-06-27T21:42:58.534Z,53.70
2019-06-27T21:48:02.989Z,53.80
2019-06-27T21:53:06.773Z,53.70
2019-06-27T21:58:10.624Z,54.30
2019-06-27T22:03:14.515Z,53.70
2019-06-27T22:08:18.449Z,53.60
2019-06-27T22:13:22.441Z,53.60
2019-06-27T22:18:26.185Z,53.60
2019-06-27T22:23:29.925Z,53.60
2019-06-27T22:28:33.680Z,53.60
2019-06-27T22:33:37.842Z,53.50
2019-06-27T22:38:59.198Z,53.50
2019-06-27T22:49:30.292Z,53.50
2019-06-27T22:54:35.308Z,53.50
2019-06-27T22:59:39.054Z,53.50
2019-06-27T23:04:42.838Z,53.40
2019-06-27T23:09:56.516Z,53.40
2019-06-27T23:15:11.387Z,53.40
2019-06-27T23:20:15.150Z,53.40
2019-06-27T23:25:18.968Z,53.90
2019-06-27T23:30:22.781Z,53.40
2019-06-27T23:35:26.460Z,53.40
2019-06-27T23:40:30.164Z,53.40
2019-06-27T23:45:33.908Z,53.30
2019-06-27T23:50:37.646Z,53.40
2019-06-27T23:55:41.282Z,53.30
